Time;durP1;ratioP1;P1;durP2;ratioP2;P2;SDS_P1;SDS_P2;PMS_P1;PMS_P2;Temp;Humidity;BMP_temperature;BMP_pressure;BME280_temperature;BME280_humidity;BME280_pressure;Samples;Min_cycle;Max_cycle;Signal;HPM_P1;HPM_P2
2023/06/28 00:00:28;;;;;;;2.45;1.63;;;;;;;;;;5051847;28;20111;-86
2023/06/28 00:02:55;;;;;;;1.95;1.35;;;;;;;;;;5072939;28;20036;-86
2023/06/28 00:05:21;;;;;;;2.38;1.38;;;;;;;;;;5070122;28;20013;-83
2023/06/28 00:07:49;;;;;;;1.50;1.30;;;;;;;;;;5042111;28;20082;-86
2023/06/28 00:10:15;;;;;;;2.55;1.73;;;;;;;;;;5066242;28;20354;-86
2023/06/28 00:12:40;;;;;;;1.17;1.00;;;;;;;;;;5046466;28;20074;-87
2023/06/28 00:15:07;;;;;;;2.85;1.83;;;;;;;;;;5070551;28;20039;-85
2023/06/28 00:17:33;;;;;;;3.10;1.83;;;;;;;;;;5072338;28;20032;-85
2023/06/28 00:20:06;;;;;;;3.03;1.40;;;;;;;;;;5043467;28;20111;-84
2023/06/28 00:22:32;;;;;;;2.40;1.35;;;;;;;;;;5040732;28;20028;-85
2023/06/28 00:25:03;;;;;;;3.10;2.10;;;;;;;;;;5063893;28;20041;-86
2023/06/28 00:27:28;;;;;;;1.25;1.15;;;;;;;;;;5057451;28;20561;-87
2023/06/28 00:29:57;;;;;;;2.38;1.50;;;;;;;;;;5054214;28;20059;-84
2023/06/28 00:32:27;;;;;;;2.78;2.13;;;;;;;;;;5047908;28;20025;-87
2023/06/28 00:34:53;;;;;;;3.25;1.70;;;;;;;;;;5055095;28;20418;-85
2023/06/28 00:37:19;;;;;;;1.85;1.20;;;;;;;;;;5041816;28;20041;-84
2023/06/28 00:39:45;;;;;;;2.35;1.60;;;;;;;;;;5038376;28;20025;-86
2023/06/28 00:42:11;;;;;;;2.65;1.65;;;;;;;;;;5041059;28;20075;-87
2023/06/28 00:44:37;;;;;;;2.45;1.80;;;;;;;;;;5059387;28;20096;-86
2023/06/28 00:47:04;;;;;;;3.88;2.08;;;;;;;;;;5057864;28;20028;-85
2023/06/28 00:49:37;;;;;;;4.28;2.35;;;;;;;;;;5046524;28;20468;-86
2023/06/28 00:52:03;;;;;;;2.30;1.80;;;;;;;;;;5046409;28;20068;-87
2023/06/28 00:54:31;;;;;;;3.67;2.92;;;;;;;;;;5061856;28;20045;-87
2023/06/28 00:56:57;;;;;;;8.15;2.00;;;;;;;;;;5049076;28;20455;-87
2023/06/28 00:59:23;;;;;;;3.72;2.42;;;;;;;;;;5043190;28;20036;-88
2023/06/28 01:01:49;;;;;;;3.55;2.05;;;;;;;;;;5044609;28;20028;-87
2023/06/28 01:04:15;;;;;;;3.25;2.28;;;;;;;;;;5059596;28;20079;-86
2023/06/28 01:06:48;;;;;;;2.45;1.88;;;;;;;;;;5064617;28;20079;-85
2023/06/28 01:09:15;;;;;;;4.78;2.60;;;;;;;;;;5076094;28;20028;-85
2023/06/28 01:11:40;;;;;;;3.50;1.88;;;;;;;;;;5061963;28;20024;-87
2023/06/28 01:14:06;;;;;;;3.13;1.95;;;;;;;;;;5047398;28;20031;-86
2023/06/28 01:16:33;;;;;;;3.45;2.28;;;;;;;;;;5044002;28;20021;-86
2023/06/28 01:19:03;;;;;;;2.45;1.77;;;;;;;;;;5063430;28;20028;-86
2023/06/28 01:21:31;;;;;;;;;;;;;;;;;;5062045;28;20120;-86
2023/06/28 01:24:00;;;;;;;3.55;2.55;;;;;;;;;;5045264;28;19912;-88
2023/06/28 01:26:26;;;;;;;3.40;2.40;;;;;;;;;;5056106;28;20045;-85
2023/06/28 01:28:52;;;;;;;3.72;2.08;;;;;;;;;;5054193;28;20427;-84
2023/06/28 01:31:17;;;;;;;3.58;2.35;;;;;;;;;;5053953;28;20035;-85
2023/06/28 01:33:43;;;;;;;2.63;1.88;;;;;;;;;;5077892;28;20120;-87
2023/06/28 01:36:09;;;;;;;3.55;2.60;;;;;;;;;;5049647;28;20571;-85
2023/06/28 01:38:36;;;;;;;4.60;2.92;;;;;;;;;;5067737;28;20036;-85
2023/06/28 01:41:03;;;;;;;3.60;2.28;;;;;;;;;;5049831;28;20028;-83
2023/06/28 01:43:29;;;;;;;3.33;2.53;;;;;;;;;;5071264;28;20111;-87
2023/06/28 01:45:54;;;;;;;4.60;3.15;;;;;;;;;;5053817;28;20024;-84
2023/06/28 01:48:20;;;;;;;5.20;2.97;;;;;;;;;;5050767;28;20044;-85
2023/06/28 01:50:46;;;;;;;3.67;2.30;;;;;;;;;;5071335;28;20025;-85
2023/06/28 01:53:12;;;;;;;4.38;3.13;;;;;;;;;;5069112;28;20035;-86
2023/06/28 01:55:37;;;;;;;3.97;3.33;;;;;;;;;;5051998;28;20017;-85
2023/06/28 01:58:03;;;;;;;3.17;2.88;;;;;;;;;;5068479;28;20029;-85
2023/06/28 02:00:28;;;;;;;3.60;2.88;;;;;;;;;;5050768;28;20032;-84
2023/06/28 02:02:54;;;;;;;5.05;3.85;;;;;;;;;;5051231;28;20021;-88
2023/06/28 02:05:20;;;;;;;3.47;2.80;;;;;;;;;;5057184;28;20436;-90
2023/06/28 02:07:46;;;;;;;5.90;3.28;;;;;;;;;;5069899;28;20032;-89
2023/06/28 02:10:11;;;;;;;4.00;2.85;;;;;;;;;;5077378;28;20495;-86
2023/06/28 02:12:37;;;;;;;5.90;3.30;;;;;;;;;;5076428;28;20032;-86
2023/06/28 02:15:04;;;;;;;4.28;2.70;;;;;;;;;;5051424;28;20556;-86
2023/06/28 02:17:31;;;;;;;2.90;2.50;;;;;;;;;;5046940;28;20082;-86
2023/06/28 02:19:57;;;;;;;4.57;2.88;;;;;;;;;;5064126;28;20025;-88
2023/06/28 02:22:26;;;;;;;3.25;2.33;;;;;;;;;;5070508;28;20025;-87
2023/06/28 02:24:51;;;;;;;5.57;3.75;;;;;;;;;;5054671;28;20071;-85
2023/06/28 02:27:17;;;;;;;4.18;2.72;;;;;;;;;;5071472;28;20496;-85
2023/06/28 02:29:42;;;;;;;2.50;2.15;;;;;;;;;;5073867;28;20039;-86
2023/06/28 02:32:08;;;;;;;3.85;2.55;;;;;;;;;;5047094;28;20191;-87
2023/06/28 02:34:33;;;;;;;3.55;2.92;;;;;;;;;;5063699;28;20487;-87
2023/06/28 02:36:59;;;;;;;3.47;2.75;;;;;;;;;;5050872;28;20021;-85
2023/06/28 02:39:25;;;;;;;4.97;3.20;;;;;;;;;;5054723;28;20032;-85
2023/06/28 02:41:50;;;;;;;4.15;3.00;;;;;;;;;;5075252;28;20034;-86
2023/06/28 02:44:16;;;;;;;3.58;2.80;;;;;;;;;;5062437;28;20417;-84
2023/06/28 02:46:42;;;;;;;8.00;3.50;;;;;;;;;;5069073;28;20089;-85
2023/06/28 02:49:08;;;;;;;6.00;3.08;;;;;;;;;;5070674;28;20472;-87
2023/06/28 02:51:33;;;;;;;3.60;2.75;;;;;;;;;;5069192;28;20025;-86
2023/06/28 02:53:59;;;;;;;4.88;3.45;;;;;;;;;;5047060;28;20033;-87
2023/06/28 02:56:25;;;;;;;3.85;2.33;;;;;;;;;;5072333;28;20100;-88
2023/06/28 02:58:52;;;;;;;5.07;2.63;;;;;;;;;;5045944;28;20060;-86
2023/06/28 03:01:19;;;;;;;4.45;2.90;;;;;;;;;;5075534;28;20027;-86
2023/06/28 03:03:44;;;;;;;3.50;2.58;;;;;;;;;;5067838;28;20162;-86
2023/06/28 03:06:10;;;;;;;3.70;2.92;;;;;;;;;;5069046;28;20066;-88
2023/06/28 03:08:35;;;;;;;4.55;3.47;;;;;;;;;;5071560;28;20055;-88
2023/06/28 03:11:01;;;;;;;3.85;2.72;;;;;;;;;;5056657;28;20055;-85
2023/06/28 03:13:26;;;;;;;9.60;4.28;;;;;;;;;;5072739;28;20382;-89
2023/06/28 03:15:52;;;;;;;5.10;3.55;;;;;;;;;;5055641;28;20024;-84
2023/06/28 03:18:17;;;;;;;3.08;2.45;;;;;;;;;;5075942;28;20028;-83
2023/06/28 03:20:42;;;;;;;6.47;4.65;;;;;;;;;;5067363;28;20472;-86
2023/06/28 03:23:08;;;;;;;4.18;3.75;;;;;;;;;;5055480;28;20029;-86
2023/06/28 03:25:34;;;;;;;4.07;3.08;;;;;;;;;;5056366;28;20055;-86
2023/06/28 03:28:00;;;;;;;3.75;3.05;;;;;;;;;;5057163;28;20028;-89
2023/06/28 03:30:25;;;;;;;3.25;2.60;;;;;;;;;;5052820;28;20032;-85
2023/06/28 03:32:51;;;;;;;3.25;2.67;;;;;;;;;;5070698;28;20024;-86
2023/06/28 03:35:16;;;;;;;2.97;2.60;;;;;;;;;;5055695;28;20021;-85
2023/06/28 03:37:52;;;;;;;6.10;2.90;;;;;;;;;;5054873;28;20044;-83
2023/06/28 03:40:18;;;;;;;4.70;3.25;;;;;;;;;;5062558;28;22009;-86
2023/06/28 03:42:43;;;;;;;3.20;2.78;;;;;;;;;;5054763;28;20088;-83
2023/06/28 03:45:09;;;;;;;4.32;3.25;;;;;;;;;;5058197;28;20032;-86
2023/06/28 03:47:35;;;;;;;8.32;3.83;;;;;;;;;;5073167;28;20032;-87
2023/06/28 03:50:00;;;;;;;4.53;3.38;;;;;;;;;;5074356;28;20032;-84
2023/06/28 03:52:26;;;;;;;5.30;3.67;;;;;;;;;;5073431;28;20043;-88
2023/06/28 03:54:52;;;;;;;3.75;2.72;;;;;;;;;;5074244;28;20026;-88
2023/06/28 03:57:22;;;;;;;4.80;3.88;;;;;;;;;;5055642;28;20028;-85
2023/06/28 03:59:48;;;;;;;4.20;2.75;;;;;;;;;;5055060;28;20036;-87
2023/06/28 04:02:13;;;;;;;3.53;2.67;;;;;;;;;;5055948;28;20024;-90
2023/06/28 04:04:39;;;;;;;3.83;3.00;;;;;;;;;;5078419;28;20039;-88
2023/06/28 04:07:05;;;;;;;3.90;3.50;;;;;;;;;;5058476;28;20062;-89
2023/06/28 04:09:31;;;;;;;4.53;3.55;;;;;;;;;;5057218;28;20032;-83
2023/06/28 04:11:56;;;;;;;5.70;3.35;;;;;;;;;;5056751;28;20027;-86
2023/06/28 04:14:23;;;;;;;3.90;2.63;;;;;;;;;;5056582;28;20529;-89
2023/06/28 04:16:49;;;;;;;4.15;2.80;;;;;;;;;;5067361;28;20025;-90
2023/06/28 04:19:14;;;;;;;3.97;3.25;;;;;;;;;;5088104;28;20491;-87
2023/06/28 04:21:40;;;;;;;4.70;3.38;;;;;;;;;;5072918;28;20375;-82
2023/06/28 04:24:06;;;;;;;4.13;3.03;;;;;;;;;;5074430;28;20115;-84
2023/06/28 04:26:31;;;;;;;4.38;3.08;;;;;;;;;;5072490;28;20029;-87
2023/06/28 04:28:57;;;;;;;3.30;2.53;;;;;;;;;;5052273;28;20426;-88
2023/06/28 04:31:23;;;;;;;4.78;3.63;;;;;;;;;;5073127;28;20362;-86
2023/06/28 04:33:49;;;;;;;5.38;2.67;;;;;;;;;;5070329;28;20392;-85
2023/06/28 04:36:21;;;;;;;3.45;2.90;;;;;;;;;;5054561;28;20020;-90
2023/06/28 04:38:52;;;;;;;5.30;2.88;;;;;;;;;;5052884;28;20020;-90
2023/06/28 04:41:25;;;;;;;3.13;2.40;;;;;;;;;;5051384;28;20082;-94
2023/06/28 04:43:54;;;;;;;5.28;3.42;;;;;;;;;;5072473;28;20032;-85
2023/06/28 04:46:26;;;;;;;4.22;3.58;;;;;;;;;;5076073;28;20059;-88
2023/06/28 04:48:53;;;;;;;3.50;2.63;;;;;;;;;;5055779;28;20040;-84
2023/06/28 04:51:19;;;;;;;4.03;2.88;;;;;;;;;;5073857;28;20052;-86
2023/06/28 04:53:46;;;;;;;4.78;2.55;;;;;;;;;;5075848;28;20111;-84
2023/06/28 04:56:11;;;;;;;4.65;3.50;;;;;;;;;;5073866;28;20023;-85
2023/06/28 04:58:37;;;;;;;4.30;3.13;;;;;;;;;;5057636;28;20488;-87
2023/06/28 05:01:07;;;;;;;3.35;3.05;;;;;;;;;;5056190;28;20162;-86
2023/06/28 05:03:33;;;;;;;3.30;2.63;;;;;;;;;;5061204;28;20073;-88
2023/06/28 05:06:02;;;;;;;6.75;3.78;;;;;;;;;;5074723;28;20028;-87
2023/06/28 05:08:27;;;;;;;4.35;2.95;;;;;;;;;;5058057;28;20493;-85
2023/06/28 05:10:53;;;;;;;3.60;2.05;;;;;;;;;;5058180;28;20166;-84
2023/06/28 05:13:19;;;;;;;3.50;2.47;;;;;;;;;;5054199;28;20530;-85
2023/06/28 05:15:44;;;;;;;2.40;1.67;;;;;;;;;;5072695;28;20036;-84
2023/06/28 05:18:10;;;;;;;4.55;3.13;;;;;;;;;;5071967;28;20033;-85
2023/06/28 05:20:35;;;;;;;2.30;1.70;;;;;;;;;;5071387;28;20030;-83
2023/06/28 05:23:11;;;;;;;3.47;2.70;;;;;;;;;;5072926;28;20064;-85
2023/06/28 05:25:40;;;;;;;2.45;2.10;;;;;;;;;;5055004;28;20037;-85
2023/06/28 05:28:06;;;;;;;;;;;;;;;;;;5073417;28;20095;-85
2023/06/28 05:30:32;;;;;;;6.47;2.80;;;;;;;;;;5048090;28;20365;-82
2023/06/28 05:32:58;;;;;;;8.32;2.42;;;;;;;;;;5042298;28;20040;-86
2023/06/28 05:35:24;;;;;;;3.90;2.85;;;;;;;;;;5052126;28;20055;-85
2023/06/28 05:37:50;;;;;;;5.45;3.33;;;;;;;;;;5066795;28;20064;-85
2023/06/28 05:40:15;;;;;;;3.70;2.92;;;;;;;;;;5084797;28;20025;-85
2023/06/28 05:42:41;;;;;;;4.00;2.78;;;;;;;;;;5069441;28;20040;-82
2023/06/28 05:45:08;;;;;;;4.88;2.80;;;;;;;;;;5051944;28;20028;-88
2023/06/28 05:47:33;;;;;;;4.68;2.92;;;;;;;;;;5065139;28;20028;-84
2023/06/28 05:49:58;;;;;;;2.53;2.33;;;;;;;;;;5049218;28;20067;-84
2023/06/28 05:52:24;;;;;;;3.70;2.53;;;;;;;;;;5068805;28;20020;-85
2023/06/28 05:54:49;;;;;;;4.00;2.90;;;;;;;;;;5065402;28;20028;-86
2023/06/28 05:57:15;;;;;;;4.55;3.28;;;;;;;;;;5055958;28;20025;-85
2023/06/28 05:59:40;;;;;;;6.25;3.78;;;;;;;;;;5070939;28;20036;-83
2023/06/28 06:02:06;;;;;;;5.28;3.60;;;;;;;;;;5057756;28;20495;-82
2023/06/28 06:04:31;;;;;;;3.22;2.30;;;;;;;;;;5056111;28;20036;-86
2023/06/28 06:06:57;;;;;;;4.20;2.90;;;;;;;;;;5072921;28;20021;-87
2023/06/28 06:09:22;;;;;;;4.78;3.15;;;;;;;;;;5073450;28;20017;-85
2023/06/28 06:11:48;;;;;;;2.75;2.13;;;;;;;;;;5073706;28;20032;-87
2023/06/28 06:14:13;;;;;;;5.82;3.95;;;;;;;;;;5071291;28;20078;-86
2023/06/28 06:16:38;;;;;;;2.85;2.45;;;;;;;;;;5048705;28;20454;-87
2023/06/28 06:19:04;;;;;;;4.78;3.38;;;;;;;;;;5071109;28;20029;-84
2023/06/28 06:21:29;;;;;;;4.18;2.95;;;;;;;;;;5063032;28;20041;-87
2023/06/28 06:23:55;;;;;;;4.45;3.08;;;;;;;;;;5058069;28;20033;-88
2023/06/28 06:26:20;;;;;;;4.97;3.13;;;;;;;;;;5049159;28;20048;-87
2023/06/28 06:28:46;;;;;;;6.50;4.88;;;;;;;;;;5046431;28;20082;-86
2023/06/28 06:31:13;;;;;;;6.75;4.32;;;;;;;;;;5051608;28;20025;-88
2023/06/28 06:33:40;;;;;;;4.30;3.75;;;;;;;;;;5050959;28;20020;-85
2023/06/28 06:36:05;;;;;;;7.28;4.10;;;;;;;;;;5062425;28;20809;-83
2023/06/28 06:38:31;;;;;;;3.90;2.63;;;;;;;;;;5065379;28;20059;-85
2023/06/28 06:40:56;;;;;;;6.45;3.85;;;;;;;;;;5046769;28;20454;-84
2023/06/28 06:43:22;;;;;;;4.43;2.75;;;;;;;;;;5070707;28;20044;-86
2023/06/28 06:45:47;;;;;;;5.43;3.42;;;;;;;;;;5070277;28;20477;-86
2023/06/28 06:48:12;;;;;;;5.68;3.95;;;;;;;;;;5072134;28;20368;-83
2023/06/28 06:50:38;;;;;;;4.88;3.63;;;;;;;;;;5054603;28;20423;-88
2023/06/28 06:53:03;;;;;;;6.68;3.83;;;;;;;;;;5052593;28;20060;-83
2023/06/28 06:55:29;;;;;;;5.32;3.47;;;;;;;;;;5049405;28;20029;-86
2023/06/28 06:57:54;;;;;;;3.90;3.17;;;;;;;;;;5066400;28;20166;-83
2023/06/28 07:00:20;;;;;;;5.25;3.75;;;;;;;;;;5071848;28;20028;-85
2023/06/28 07:02:45;;;;;;;4.03;2.78;;;;;;;;;;5032635;28;20051;-84
2023/06/28 07:05:11;;;;;;;5.57;4.10;;;;;;;;;;5070966;28;20028;-83
2023/06/28 07:07:36;;;;;;;5.25;3.50;;;;;;;;;;5071868;28;20028;-84
2023/06/28 07:10:02;;;;;;;3.70;3.03;;;;;;;;;;5067222;28;20041;-84
2023/06/28 07:12:27;;;;;;;5.32;4.05;;;;;;;;;;5062798;28;20036;-84
2023/06/28 07:14:53;;;;;;;3.58;2.90;;;;;;;;;;5061347;28;20025;-83
2023/06/28 07:17:18;;;;;;;4.13;2.75;;;;;;;;;;5069832;28;20074;-83
2023/06/28 07:19:43;;;;;;;6.43;4.07;;;;;;;;;;5063741;28;20105;-83
2023/06/28 07:22:09;;;;;;;4.75;3.08;;;;;;;;;;5069527;28;20086;-84
2023/06/28 07:24:34;;;;;;;3.28;2.67;;;;;;;;;;5070582;28;20529;-85
2023/06/28 07:27:00;;;;;;;5.60;3.95;;;;;;;;;;5054074;28;20048;-85
2023/06/28 07:29:27;;;;;;;4.43;3.28;;;;;;;;;;5054776;28;20090;-86
2023/06/28 07:31:53;;;;;;;3.05;2.53;;;;;;;;;;5051151;28;20476;-82
2023/06/28 07:34:18;;;;;;;4.30;3.17;;;;;;;;;;5071762;28;20033;-86
2023/06/28 07:36:44;;;;;;;4.32;2.88;;;;;;;;;;5070413;28;20055;-83
2023/06/28 07:39:09;;;;;;;4.25;3.25;;;;;;;;;;5050626;28;20485;-84
2023/06/28 07:41:35;;;;;;;4.00;3.17;;;;;;;;;;5068451;28;20472;-85
2023/06/28 07:44:00;;;;;;;3.15;2.38;;;;;;;;;;5053276;28;20093;-85
2023/06/28 07:46:26;;;;;;;4.93;3.30;;;;;;;;;;5053508;28;20035;-85
2023/06/28 07:48:51;;;;;;;4.82;3.47;;;;;;;;;;5071588;28;20033;-85
2023/06/28 07:51:17;;;;;;;3.67;2.75;;;;;;;;;;5049561;28;20039;-85
2023/06/28 07:53:43;;;;;;;5.50;3.25;;;;;;;;;;5071472;28;20027;-88
2023/06/28 07:56:08;;;;;;;4.38;3.20;;;;;;;;;;5052206;28;20021;-85
2023/06/28 07:58:37;;;;;;;4.10;2.85;;;;;;;;;;5070689;28;20044;-85
2023/06/28 08:01:02;;;;;;;4.95;3.30;;;;;;;;;;5048125;28;20016;-84
2023/06/28 08:03:28;;;;;;;2.45;2.13;;;;;;;;;;5071714;28;20024;-84
2023/06/28 08:05:53;;;;;;;2.75;1.95;;;;;;;;;;5070705;28;20024;-84
2023/06/28 08:08:19;;;;;;;3.53;2.38;;;;;;;;;;5068047;28;20020;-82
2023/06/28 08:10:44;;;;;;;3.58;2.45;;;;;;;;;;5053125;28;20027;-87
2023/06/28 08:13:10;;;;;;;4.00;2.55;;;;;;;;;;5071021;28;20067;-82
2023/06/28 08:15:36;;;;;;;3.10;1.80;;;;;;;;;;5053518;28;20063;-84
2023/06/28 08:18:05;;;;;;;2.47;1.50;;;;;;;;;;5071988;28;20025;-85
2023/06/28 08:20:31;;;;;;;3.00;2.05;;;;;;;;;;5051737;28;20480;-86
2023/06/28 08:22:56;;;;;;;6.70;3.50;;;;;;;;;;5052309;28;20052;-83
2023/06/28 08:25:22;;;;;;;3.53;2.20;;;;;;;;;;5053116;28;20059;-82
2023/06/28 08:27:48;;;;;;;3.47;2.45;;;;;;;;;;5062084;28;20051;-83
2023/06/28 08:30:14;;;;;;;2.63;1.77;;;;;;;;;;5066618;28;20029;-85
2023/06/28 08:32:40;;;;;;;6.50;2.33;;;;;;;;;;5066135;28;20040;-84
2023/06/28 08:35:06;;;;;;;2.42;2.08;;;;;;;;;;5071120;28;20028;-85
2023/06/28 08:37:34;;;;;;;3.83;1.80;;;;;;;;;;5054087;28;20115;-86
2023/06/28 08:40:00;;;;;;;3.55;2.58;;;;;;;;;;5071305;28;20090;-84
2023/06/28 08:42:28;;;;;;;3.70;2.33;;;;;;;;;;5052174;28;20369;-90
2023/06/28 08:44:56;;;;;;;2.70;1.65;;;;;;;;;;5068414;28;20025;-83
2023/06/28 08:47:21;;;;;;;3.90;2.53;;;;;;;;;;5069767;28;20025;-86
2023/06/28 08:49:47;;;;;;;3.13;2.35;;;;;;;;;;5051225;28;20025;-83
2023/06/28 08:52:14;;;;;;;2.90;2.17;;;;;;;;;;5045040;28;20779;-84
2023/06/28 08:54:41;;;;;;;2.75;1.83;;;;;;;;;;5063215;28;20033;-89
2023/06/28 08:57:07;;;;;;;5.13;2.10;;;;;;;;;;5070189;28;20021;-87
2023/06/28 08:59:32;;;;;;;2.30;1.73;;;;;;;;;;5062673;28;20024;-86
2023/06/28 09:02:00;;;;;;;3.65;2.17;;;;;;;;;;5051144;28;20028;-87
2023/06/28 09:04:27;;;;;;;2.50;1.75;;;;;;;;;;5070020;28;20032;-86
2023/06/28 09:06:53;;;;;;;2.58;2.00;;;;;;;;;;5054214;28;20074;-85
2023/06/28 09:09:18;;;;;;;2.17;1.27;;;;;;;;;;5072180;28;20036;-87
2023/06/28 09:11:44;;;;;;;2.20;1.70;;;;;;;;;;5068274;28;20094;-87
2023/06/28 09:14:10;;;;;;;3.08;2.38;;;;;;;;;;5064470;28;20085;-87
2023/06/28 09:16:36;;;;;;;3.75;2.35;;;;;;;;;;5070835;28;20040;-86
2023/06/28 09:19:01;;;;;;;3.75;2.55;;;;;;;;;;5053328;28;20376;-86
2023/06/28 09:21:31;;;;;;;3.08;1.92;;;;;;;;;;5063909;28;20028;-89
2023/06/28 09:23:57;;;;;;;;;;;;;;;;;;5053960;28;20093;-85
2023/06/28 09:26:30;;;;;;;3.70;1.98;;;;;;;;;;5040503;28;20330;-86
2023/06/28 09:28:59;;;;;;;3.85;2.65;;;;;;;;;;5052549;28;20435;-84
2023/06/28 09:31:24;;;;;;;1.98;1.25;;;;;;;;;;5054690;28;20028;-85
2023/06/28 09:33:53;;;;;;;4.70;2.83;;;;;;;;;;5055757;28;20037;-87
2023/06/28 09:36:19;;;;;;;3.33;2.33;;;;;;;;;;5052017;28;20036;-86
2023/06/28 09:38:44;;;;;;;2.83;2.13;;;;;;;;;;5052901;28;20033;-86
2023/06/28 09:41:10;;;;;;;4.82;1.80;;;;;;;;;;5050881;28;20036;-84
2023/06/28 09:43:37;;;;;;;2.55;1.83;;;;;;;;;;5037119;28;20473;-85
2023/06/28 09:46:15;;;;;;;3.47;2.22;;;;;;;;;;5055010;28;20477;-84
2023/06/28 09:48:43;;;;;;;2.97;2.03;;;;;;;;;;5049754;28;20480;-82
2023/06/28 09:51:10;;;;;;;2.25;1.77;;;;;;;;;;5050154;28;20025;-85
2023/06/28 09:53:53;;;;;;;3.85;2.67;;;;;;;;;;5052920;28;20043;-86
2023/06/28 09:56:38;;;;;;;3.08;2.40;;;;;;;;;;5049288;28;20032;-88
2023/06/28 09:59:06;;;;;;;3.50;2.63;;;;;;;;;;5064586;28;20465;-86
2023/06/28 10:01:37;;;;;;;3.75;2.25;;;;;;;;;;5055261;28;20535;-88
2023/06/28 10:04:05;;;;;;;2.42;1.70;;;;;;;;;;5053288;28;20052;-87
2023/06/28 10:06:33;;;;;;;3.92;2.42;;;;;;;;;;5048182;28;20036;-83
2023/06/28 10:08:59;;;;;;;2.80;2.05;;;;;;;;;;5054259;28;20032;-85
2023/06/28 10:11:29;;;;;;;4.03;2.80;;;;;;;;;;5054711;28;20029;-88
2023/06/28 10:13:55;;;;;;;2.10;1.80;;;;;;;;;;5049447;28;20033;-82
2023/06/28 10:16:24;;;;;;;2.35;1.98;;;;;;;;;;5053902;28;20115;-87
2023/06/28 10:18:50;;;;;;;3.58;2.10;;;;;;;;;;5037752;28;20383;-85
2023/06/28 10:21:17;;;;;;;6.15;2.92;;;;;;;;;;5051634;28;20095;-84
2023/06/28 10:23:44;;;;;;;3.42;2.45;;;;;;;;;;5057134;28;20033;-85
2023/06/28 10:26:12;;;;;;;2.65;2.00;;;;;;;;;;5046680;28;20067;-87
2023/06/28 10:28:40;;;;;;;3.97;3.13;;;;;;;;;;5071197;28;20171;-86
2023/06/28 10:31:06;;;;;;;3.58;2.38;;;;;;;;;;5055416;28;20085;-84
2023/06/28 10:33:37;;;;;;;3.53;2.30;;;;;;;;;;5074559;28;20032;-87
2023/06/28 10:36:03;;;;;;;3.50;2.85;;;;;;;;;;5073489;28;20032;-85
2023/06/28 10:38:33;;;;;;;2.45;2.05;;;;;;;;;;5053528;28;20051;-85
2023/06/28 10:41:00;;;;;;;;;;;;;;;;;;5054515;28;20020;-89
2023/06/28 10:43:25;;;;;;;4.53;3.17;;;;;;;;;;5054745;28;19912;-87
2023/06/28 10:45:55;;;;;;;3.78;2.38;;;;;;;;;;5073330;28;20044;-87
2023/06/28 10:48:21;;;;;;;2.47;1.95;;;;;;;;;;5071268;28;20059;-85
2023/06/28 10:50:48;;;;;;;3.53;1.92;;;;;;;;;;5071410;28;20464;-85
2023/06/28 10:53:25;;;;;;;2.35;1.60;;;;;;;;;;5051980;28;20430;-85
2023/06/28 10:56:10;;;;;;;2.22;1.70;;;;;;;;;;5055161;28;20021;-85
2023/06/28 10:58:43;;;;;;;2.33;1.67;;;;;;;;;;5072464;28;20115;-83
2023/06/28 11:01:11;;;;;;;2.25;1.92;;;;;;;;;;5071188;28;20024;-87
2023/06/28 11:03:37;;;;;;;4.55;2.58;;;;;;;;;;5053569;28;20473;-84
2023/06/28 11:06:03;;;;;;;3.78;2.28;;;;;;;;;;5054738;28;20036;-89
2023/06/28 11:08:37;;;;;;;2.67;1.58;;;;;;;;;;5072799;28;20028;-86
2023/06/28 11:11:02;;;;;;;2.35;1.70;;;;;;;;;;5069695;28;20384;-85
2023/06/28 11:13:40;;;;;;;4.10;2.38;;;;;;;;;;5070981;28;20028;-87
2023/06/28 11:16:22;;;;;;;2.72;1.70;;;;;;;;;;5071049;28;20032;-88
2023/06/28 11:18:49;;;;;;;1.73;1.05;;;;;;;;;;5055341;28;20495;-86
2023/06/28 11:21:17;;;;;;;1.88;1.48;;;;;;;;;;5073125;28;20031;-86
2023/06/28 11:23:45;;;;;;;2.42;1.75;;;;;;;;;;5053786;28;20028;-87
2023/06/28 11:26:16;;;;;;;1.88;1.20;;;;;;;;;;5066515;28;20075;-86
2023/06/28 11:28:54;;;;;;;2.80;1.80;;;;;;;;;;5054999;28;20029;-85
2023/06/28 11:31:25;;;;;;;3.33;2.08;;;;;;;;;;5057051;28;20032;-85
2023/06/28 11:33:56;;;;;;;2.30;1.60;;;;;;;;;;5062253;28;20036;-88
2023/06/28 11:36:25;;;;;;;2.03;1.48;;;;;;;;;;5063499;28;20112;-90
2023/06/28 11:38:50;;;;;;;3.30;2.40;;;;;;;;;;5042157;28;20027;-90
2023/06/28 11:41:16;;;;;;;2.78;1.77;;;;;;;;;;5063067;28;20349;-85
2023/06/28 11:43:45;;;;;;;3.60;2.38;;;;;;;;;;5059272;28;20071;-87
2023/06/28 11:46:19;;;;;;;1.58;1.02;;;;;;;;;;5059704;28;20021;-86
2023/06/28 11:48:46;;;;;;;2.55;2.03;;;;;;;;;;5043856;28;20036;-87
2023/06/28 11:51:13;;;;;;;3.42;2.38;;;;;;;;;;5061566;28;20042;-84
2023/06/28 11:53:39;;;;;;;2.28;1.15;;;;;;;;;;5043458;28;20493;-87
2023/06/28 11:56:04;;;;;;;2.97;1.50;;;;;;;;;;5064922;28;20060;-87
2023/06/28 11:58:32;;;;;;;2.17;1.70;;;;;;;;;;5041053;28;20037;-89
2023/06/28 12:00:59;;;;;;;1.90;1.23;;;;;;;;;;5040364;28;20032;-87
2023/06/28 12:03:36;;;;;;;1.90;1.33;;;;;;;;;;5036174;28;20060;-84
2023/06/28 12:06:03;;;;;;;2.40;1.13;;;;;;;;;;5062918;28;20020;-83
2023/06/28 12:08:33;;;;;;;2.53;1.77;;;;;;;;;;5052151;28;20131;-85
2023/06/28 12:11:00;;;;;;;4.43;1.75;;;;;;;;;;5052321;28;20024;-81
2023/06/28 12:13:27;;;;;;;1.45;1.17;;;;;;;;;;5051913;28;20082;-86
2023/06/28 12:15:54;;;;;;;1.77;1.00;;;;;;;;;;5059596;28;20079;-83
2023/06/28 12:18:19;;;;;;;1.60;1.30;;;;;;;;;;5055251;28;20028;-84
2023/06/28 12:20:45;;;;;;;2.35;1.70;;;;;;;;;;5040326;28;20496;-84
2023/06/28 12:23:13;;;;;;;2.97;1.70;;;;;;;;;;5056322;28;20032;-85
2023/06/28 12:25:45;;;;;;;3.58;2.10;;;;;;;;;;5061618;28;20048;-85
2023/06/28 12:28:15;;;;;;;1.23;0.93;;;;;;;;;;5049620;28;21302;-87
2023/06/28 12:30:40;;;;;;;1.88;1.40;;;;;;;;;;5053826;28;20039;-86
2023/06/28 12:33:08;;;;;;;1.80;1.25;;;;;;;;;;5074231;28;20376;-85
2023/06/28 12:35:34;;;;;;;1.95;1.55;;;;;;;;;;5070177;28;20027;-85
2023/06/28 12:38:02;;;;;;;1.98;1.25;;;;;;;;;;5071925;28;20028;-87
2023/06/28 12:40:36;;;;;;;0.95;0.70;;;;;;;;;;5068322;28;20028;-84
2023/06/28 12:43:13;;;;;;;2.45;2.08;;;;;;;;;;5047382;28;20023;-85
2023/06/28 12:45:46;;;;;;;1.67;1.08;;;;;;;;;;5045587;28;20028;-86
2023/06/28 12:48:16;;;;;;;1.30;0.95;;;;;;;;;;5069862;28;20032;-87
2023/06/28 12:50:46;;;;;;;1.55;0.90;;;;;;;;;;5048910;28;20365;-85
2023/06/28 12:53:12;;;;;;;1.15;0.70;;;;;;;;;;5048861;28;20032;-85
2023/06/28 12:55:39;;;;;;;1.95;1.30;;;;;;;;;;5072137;28;20090;-88
2023/06/28 12:58:04;;;;;;;2.00;1.23;;;;;;;;;;5072638;28;20032;-83
2023/06/28 13:00:30;;;;;;;1.30;1.08;;;;;;;;;;5071407;28;20129;-86
2023/06/28 13:02:55;;;;;;;1.95;1.38;;;;;;;;;;5071828;28;20028;-88
2023/06/28 13:05:21;;;;;;;1.88;1.02;;;;;;;;;;5074534;28;20024;-87
2023/06/28 13:07:47;;;;;;;2.95;1.67;;;;;;;;;;5075783;28;20090;-86
2023/06/28 13:10:13;;;;;;;0.88;0.70;;;;;;;;;;5057618;28;20020;-87
2023/06/28 13:12:38;;;;;;;3.15;1.48;;;;;;;;;;5074523;28;20032;-86
2023/06/28 13:15:06;;;;;;;1.23;1.13;;;;;;;;;;5051062;28;20029;-83
2023/06/28 13:17:31;;;;;;;2.13;1.40;;;;;;;;;;5074046;28;20020;-80
2023/06/28 13:19:57;;;;;;;1.52;1.30;;;;;;;;;;5069941;28;20094;-81
2023/06/28 13:22:22;;;;;;;1.95;1.13;;;;;;;;;;5042172;28;20537;-83
2023/06/28 13:24:47;;;;;;;6.45;1.08;;;;;;;;;;5045837;28;20028;-85
2023/06/28 13:27:13;;;;;;;1.00;0.77;;;;;;;;;;5066956;28;20481;-82
2023/06/28 13:29:38;;;;;;;0.75;0.52;;;;;;;;;;5071234;28;20029;-84
2023/06/28 13:32:06;;;;;;;1.13;0.98;;;;;;;;;;5071594;28;20472;-87
2023/06/28 13:34:31;;;;;;;0.52;0.52;;;;;;;;;;5072213;28;20095;-83
2023/06/28 13:36:58;;;;;;;1.02;0.82;;;;;;;;;;5067495;28;20581;-86
2023/06/28 13:39:24;;;;;;;0.28;0.28;;;;;;;;;;5074769;28;20024;-84
2023/06/28 13:41:49;;;;;;;0.60;0.60;;;;;;;;;;5069926;28;20063;-86
2023/06/28 13:44:15;;;;;;;0.15;0.15;;;;;;;;;;5056777;28;20097;-83
2023/06/28 13:46:40;;;;;;;1.02;0.80;;;;;;;;;;5054436;28;20025;-83
2023/06/28 13:49:06;;;;;;;0.75;0.55;;;;;;;;;;5073297;28;20028;-88
2023/06/28 13:51:32;;;;;;;1.35;1.02;;;;;;;;;;5063343;28;20431;-86
2023/06/28 13:54:24;;;;;;;2.53;1.63;;;;;;;;;;5052417;28;20025;-89
2023/06/28 13:56:54;;;;;;;2.08;0.98;;;;;;;;;;5073665;28;20074;-88
2023/06/28 13:59:32;;;;;;;;;;;;;;;;;;;;;
2023/06/28 14:02:09;;;;;;;2.08;1.23;;;;;;;;;;5074588;28;20032;-86
2023/06/28 14:04:44;;;;;;;1.25;1.00;;;;;;;;;;5059105;28;20081;-85
2023/06/28 14:07:22;;;;;;;0.47;0.38;;;;;;;;;;5057505;28;20025;-83
2023/06/28 14:09:48;;;;;;;4.85;1.02;;;;;;;;;;5074818;28;20039;-85
2023/06/28 14:12:54;;;;;;;1.08;0.85;;;;;;;;;;5055506;28;20031;-85
2023/06/28 14:15:27;;;;;;;0.38;0.38;;;;;;;;;;5071989;28;20037;-86
2023/06/28 14:17:55;;;;;;;0.65;0.65;;;;;;;;;;5054976;28;20618;-86
2023/06/28 14:20:42;;;;;;;0.85;0.68;;;;;;;;;;5073663;28;20021;-86
2023/06/28 14:23:16;;;;;;;0.63;0.63;;;;;;;;;;5050664;28;20034;-87
2023/06/28 14:25:58;;;;;;;0.17;0.17;;;;;;;;;;5054289;28;20123;-86
2023/06/28 14:28:29;;;;;;;1.80;1.25;;;;;;;;;;5038596;28;20044;-84
2023/06/28 14:31:15;;;;;;;0.98;0.75;;;;;;;;;;5052461;28;20035;-84
2023/06/28 14:33:47;;;;;;;0.47;0.45;;;;;;;;;;5056805;28;20032;-83
2023/06/28 14:36:23;;;;;;;1.58;0.65;;;;;;;;;;5072698;28;20403;-86
2023/06/28 14:39:03;;;;;;;1.30;0.52;;;;;;;;;;5071398;28;20102;-83
2023/06/28 14:41:36;;;;;;;1.63;0.65;;;;;;;;;;5071764;28;20026;-84
2023/06/28 14:44:04;;;;;;;0.50;0.50;;;;;;;;;;5053379;28;20048;-87
2023/06/28 14:46:32;;;;;;;0.60;0.40;;;;;;;;;;5074476;28;20091;-85